METAR AND TAF INFORMATION
METAR FOR PFEL
ADDS - METARS form results

(2024 UTC 29 January 2020)
Data provider http://aviationweather.gov/metar/data/
 
METAR text: PFEL 291956Z AUTO 01007KT 10SM CLR M23/M31 A2945 RMK AO2 SLP979 T12331306 FZRANO
Conditions at: PFEL (ELIM APRT , AK, US) observed 1956 UTC 29 January 2020
Temperature: -23.3°C (-10°F)
Dewpoint: -30.6°C (-23°F) [RH = 51%]
Pressure (altimeter): 29.45 inches Hg (997.4 mb)
[Sea-level pressure:  997.9 mb]
Winds: from the N (10 degrees) at 8 MPH (7 knots; 3.6 m/s)
Visibility: 10 or more miles (16+ km)
Ceiling: at least 12,000 feet AGL
Clouds: sky clear below 12,000 feet AGL
Weather: automated observation with no human augmentation;
there may or may not be significant weather present at this time

 AIRPORT MAP

 RUNWAY INFORMATION
Runway 01 Runway length 3401 ft Runway width 60 ft
Runway elevation 162 ft Runway displaced threshold 0 ft Runway heading 0
Runway 19 Runway length 3401 ft Runway width 60 ft
Runway elevation 123 ft Runway displaced threshold 0 ft Runway heading 0

 AIRPORT FREQUENCIES

 AIRPORT NEAR NAVIGATION AIDS



We are a FlightSim virtual group and are in no way affiliated with RavnAir Group.

Powered by Virtual Airlines Manager [v2.6.2]